Time;durP1;ratioP1;P1;durP2;ratioP2;P2;SDS_P1;SDS_P2;PMS_P1;PMS_P2;Temp;Humidity;BMP_temperature;BMP_pressure;BME280_temperature;BME280_humidity;BME280_pressure;Samples;Min_cycle;Max_cycle;Signal;HPM_P1;HPM_P2
2023/09/26 00:02:22;;;;;;;16.60;13.33;;;13.60;25.80;;;;;;4988218;28;20476;-68
2023/09/26 00:04:49;;;;;;;15.50;10.60;;;13.60;25.80;;;;;;4985395;28;20492;-67
2023/09/26 00:07:15;;;;;;;12.73;11.40;;;13.60;25.70;;;;;;4986134;28;20465;-68
2023/09/26 00:09:42;;;;;;;15.33;12.00;;;13.50;25.70;;;;;;4987729;28;21166;-68
2023/09/26 00:12:09;;;;;;;17.27;11.63;;;13.40;25.60;;;;;;4983886;28;20891;-68
2023/09/26 00:14:38;;;;;;;15.60;12.40;;;13.40;25.70;;;;;;4985273;28;20477;-68
2023/09/26 00:17:05;;;;;;;16.80;12.90;;;13.30;25.90;;;;;;4984425;28;20999;-68
2023/09/26 00:19:32;;;;;;;17.37;13.70;;;13.30;26.40;;;;;;4987913;28;20469;-68
2023/09/26 00:21:58;;;;;;;15.50;13.90;;;13.30;26.70;;;;;;4980804;28;20468;-67
2023/09/26 00:24:25;;;;;;;16.33;13.53;;;13.30;27.00;;;;;;4985864;28;20503;-67
2023/09/26 00:26:53;;;;;;;14.40;12.27;;;13.30;27.30;;;;;;4986537;28;20468;-68
2023/09/26 00:29:19;;;;;;;15.07;12.77;;;13.20;27.40;;;;;;4987174;28;20552;-68
2023/09/26 00:31:51;;;;;;;13.57;10.57;;;13.20;27.50;;;;;;4982761;28;20488;-68
2023/09/26 00:34:18;;;;;;;11.30;9.77;;;13.10;28.20;;;;;;4981160;28;20484;-67
2023/09/26 00:36:45;;;;;;;19.40;11.07;;;13.10;28.00;;;;;;4985513;28;20882;-68
2023/09/26 00:39:12;;;;;;;15.53;11.40;;;13.00;27.90;;;;;;4992356;28;20950;-68
2023/09/26 00:41:39;;;;;;;12.80;10.60;;;13.00;28.00;;;;;;4988520;28;20456;-68
2023/09/26 00:44:07;;;;;;;13.93;11.83;;;13.00;28.10;;;;;;4989676;28;20558;-68
2023/09/26 00:46:34;;;;;;;13.90;11.30;;;13.00;28.00;;;;;;4990060;28;20468;-68
2023/09/26 00:49:02;;;;;;;13.60;11.43;;;13.00;28.30;;;;;;4989750;28;20464;-68
2023/09/26 00:51:30;;;;;;;14.17;11.63;;;13.00;28.60;;;;;;4987693;28;21009;-68
2023/09/26 00:53:57;;;;;;;14.20;11.70;;;12.90;28.60;;;;;;4994169;28;20488;-68
2023/09/26 00:56:24;;;;;;;16.53;12.67;;;13.00;28.60;;;;;;4986817;28;20488;-68
2023/09/26 00:58:51;;;;;;;15.07;12.03;;;13.00;28.80;;;;;;4991808;28;20472;-68
2023/09/26 01:01:22;;;;;;;13.93;11.37;;;13.00;29.10;;;;;;4992607;28;20481;-68
2023/09/26 01:03:49;;;;;;;15.97;12.33;;;12.90;29.10;;;;;;4990276;28;20512;-68
2023/09/26 01:06:17;;;;;;;16.80;10.60;;;12.90;29.20;;;;;;4990312;28;20461;-68
2023/09/26 01:08:44;;;;;;;13.70;10.80;;;12.90;29.10;;;;;;4990854;28;20972;-67
2023/09/26 01:11:10;;;;;;;13.70;10.90;;;12.80;29.20;;;;;;4995347;28;20475;-68
2023/09/26 01:13:37;;;;;;;15.00;10.80;;;12.80;29.20;;;;;;5005192;23;20504;-66
2023/09/26 01:16:15;;;;;;;15.20;10.63;;;12.80;29.20;;;;;;4991464;28;20465;-67
2023/09/26 01:18:41;;;;;;;13.17;10.30;;;12.80;29.30;;;;;;4989832;28;20857;-66
2023/09/26 01:21:08;;;;;;;13.20;10.63;;;12.80;28.90;;;;;;4989861;28;20828;-67
2023/09/26 01:23:39;;;;;;;13.93;10.50;;;12.80;29.00;;;;;;4987600;28;20503;-67
2023/09/26 01:26:07;;;;;;;13.97;10.30;;;12.70;29.00;;;;;;4987670;28;20481;-67
2023/09/26 01:28:35;;;;;;;12.80;10.47;;;12.70;28.60;;;;;;4989924;28;20830;-67
2023/09/26 01:31:02;;;;;;;12.50;10.10;;;12.70;28.50;;;;;;4989816;28;20504;-67
2023/09/26 01:33:29;;;;;;;11.83;9.87;;;12.80;28.50;;;;;;4989254;28;20488;-67
2023/09/26 01:35:56;;;;;;;13.60;10.93;;;12.70;28.60;;;;;;4989042;28;20464;-67
2023/09/26 01:38:24;;;;;;;13.93;10.33;;;12.70;28.60;;;;;;4988596;28;20634;-67
2023/09/26 01:40:51;;;;;;;13.10;11.70;;;12.70;28.90;;;;;;4989132;28;20472;-67
2023/09/26 01:43:19;;;;;;;12.50;11.20;;;12.70;28.70;;;;;;4989416;28;20476;-67
2023/09/26 01:45:46;;;;;;;14.23;11.57;;;12.70;28.90;;;;;;4989429;28;20476;-66
2023/09/26 01:48:12;;;;;;;15.23;11.37;;;12.70;28.80;;;;;;4989170;28;20468;-66
2023/09/26 01:50:40;;;;;;;14.53;12.47;;;12.70;28.90;;;;;;4991740;28;20559;-67
2023/09/26 01:53:08;;;;;;;14.90;12.70;;;12.70;29.10;;;;;;4991660;28;20487;-66
2023/09/26 01:55:35;;;;;;;15.73;12.50;;;12.70;29.00;;;;;;4988692;28;21109;-66
2023/09/26 01:58:02;;;;;;;16.67;11.60;;;12.70;29.30;;;;;;4987577;28;20465;-66
2023/09/26 02:00:30;;;;;;;13.10;11.03;;;12.60;29.00;;;;;;4988556;28;20480;-66
2023/09/26 02:02:58;;;;;;;12.80;10.73;;;12.60;28.80;;;;;;4989033;28;20465;-66
2023/09/26 02:05:25;;;;;;;12.57;9.80;;;12.60;28.90;;;;;;4987310;28;20489;-67
2023/09/26 02:07:51;;;;;;;13.93;12.03;;;12.60;28.80;;;;;;4992151;28;20857;-67
2023/09/26 02:10:19;;;;;;;15.43;12.17;;;12.60;28.50;;;;;;4988811;28;20468;-67
2023/09/26 02:12:47;;;;;;;14.23;11.40;;;12.50;28.80;;;;;;4989070;28;20464;-67
2023/09/26 02:15:14;;;;;;;13.67;11.50;;;12.60;28.60;;;;;;4985022;28;20491;-67
2023/09/26 02:17:43;;;;;;;15.80;12.50;;;12.50;28.40;;;;;;4988439;28;20491;-67
2023/09/26 02:20:14;;;;;;;13.30;11.03;;;12.40;28.30;;;;;;4990319;28;20472;-67
2023/09/26 02:22:42;;;;;;;16.27;12.20;;;12.40;28.30;;;;;;4989417;28;20496;-66
2023/09/26 02:25:09;;;;;;;18.10;11.90;;;12.30;28.20;;;;;;4991020;28;20508;-67
2023/09/26 02:27:37;;;;;;;15.27;12.40;;;12.30;28.30;;;;;;4987737;28;20515;-67
2023/09/26 02:30:05;;;;;;;16.27;11.90;;;12.20;28.40;;;;;;4986988;28;21222;-66
2023/09/26 02:32:33;;;;;;;15.67;12.07;;;12.20;28.40;;;;;;4986304;28;20480;-66
2023/09/26 02:35:02;;;;;;;15.50;11.50;;;12.20;28.30;;;;;;4987034;28;20468;-66
2023/09/26 02:37:29;;;;;;;15.37;12.23;;;12.20;28.40;;;;;;4988977;28;20507;-66
2023/09/26 02:39:55;;;;;;;13.57;12.13;;;12.10;28.40;;;;;;4987144;28;21032;-66
2023/09/26 02:42:22;;;;;;;16.00;11.70;;;12.10;28.30;;;;;;4987478;28;20475;-66
2023/09/26 02:44:49;;;;;;;15.53;11.10;;;12.10;28.40;;;;;;4987789;28;20485;-66
2023/09/26 02:47:16;;;;;;;14.30;11.90;;;12.10;28.50;;;;;;4987696;28;20469;-66
2023/09/26 02:49:42;;;;;;;14.83;12.67;;;12.10;28.80;;;;;;4986341;28;20481;-66
2023/09/26 02:52:11;;;;;;;16.97;13.77;;;12.10;29.00;;;;;;4989263;28;20473;-66
2023/09/26 02:54:37;;;;;;;16.13;13.43;;;12.10;29.20;;;;;;4988862;28;20541;-66
2023/09/26 02:57:04;;;;;;;16.60;13.23;;;12.10;29.30;;;;;;4987326;28;20468;-66
2023/09/26 02:59:31;;;;;;;14.50;11.40;;;12.10;29.40;;;;;;4985840;28;20477;-66
2023/09/26 03:01:58;;;;;;;13.77;12.03;;;12.00;29.40;;;;;;4987186;28;20481;-66
2023/09/26 03:04:24;;;;;;;13.43;10.80;;;12.00;29.20;;;;;;4983678;28;20485;-67
2023/09/26 03:06:51;;;;;;;14.50;11.30;;;12.10;29.20;;;;;;4987784;28;20871;-66
2023/09/26 03:09:19;;;;;;;13.30;11.40;;;12.00;29.00;;;;;;4990814;28;20960;-67
2023/09/26 03:11:46;;;;;;;14.73;11.83;;;11.90;29.50;;;;;;4985985;28;20840;-67
2023/09/26 03:14:13;;;;;;;14.93;13.37;;;11.90;29.30;;;;;;4987728;28;20823;-67
2023/09/26 03:16:40;;;;;;;16.20;12.07;;;11.90;29.40;;;;;;4986474;28;20842;-67
2023/09/26 03:19:08;;;;;;;16.50;12.73;;;11.80;29.40;;;;;;4985119;28;20511;-67
2023/09/26 03:21:34;;;;;;;17.53;12.40;;;11.80;29.30;;;;;;4987877;28;20471;-67
2023/09/26 03:24:01;;;;;;;24.43;13.00;;;11.80;29.30;;;;;;4986817;28;20486;-67
2023/09/26 03:26:29;;;;;;;16.93;11.77;;;11.80;29.30;;;;;;4985186;28;20492;-67
2023/09/26 03:28:56;;;;;;;17.67;11.03;;;11.80;29.40;;;;;;4985550;28;20475;-66
2023/09/26 03:31:23;;;;;;;15.07;10.37;;;11.70;29.50;;;;;;4987493;28;20476;-66
2023/09/26 03:33:50;;;;;;;20.43;10.60;;;11.70;29.60;;;;;;4986674;28;20527;-66
2023/09/26 03:36:18;;;;;;;16.60;9.60;;;11.70;29.60;;;;;;4986891;28;20519;-66
2023/09/26 03:38:44;;;;;;;15.83;9.47;;;11.60;29.40;;;;;;4987077;28;20957;-67
2023/09/26 03:41:11;;;;;;;15.10;9.33;;;11.60;29.60;;;;;;4988035;28;20472;-66
2023/09/26 03:43:39;;;;;;;16.33;9.20;;;11.60;29.40;;;;;;4984626;28;20490;-66
2023/09/26 03:46:08;;;;;;;9.33;7.90;;;11.60;29.30;;;;;;4987464;28;21354;-66
2023/09/26 03:48:35;;;;;;;11.50;8.40;;;11.50;29.10;;;;;;4987433;28;20513;-67
2023/09/26 03:51:09;;;;;;;8.60;7.57;;;11.50;28.80;;;;;;4987257;28;20456;-67
2023/09/26 03:53:36;;;;;;;11.07;8.27;;;11.50;28.80;;;;;;4986321;28;20566;-67
2023/09/26 03:56:02;;;;;;;8.87;7.97;;;11.50;28.80;;;;;;4987533;28;20448;-67
2023/09/26 03:58:29;;;;;;;9.57;7.93;;;11.50;28.70;;;;;;4986383;28;20464;-67
2023/09/26 04:01:08;;;;;;;11.40;9.17;;;11.40;28.80;;;;;;4980988;28;20480;-66
2023/09/26 04:03:34;;;;;;;11.50;8.80;;;11.40;29.30;;;;;;4986116;28;20602;-67
2023/09/26 04:06:01;;;;;;;11.33;9.70;;;11.40;29.10;;;;;;4985165;28;20489;-66
2023/09/26 04:08:28;;;;;;;11.37;9.07;;;11.30;29.30;;;;;;4986560;28;20817;-66
2023/09/26 04:10:54;;;;;;;9.40;7.60;;;11.30;29.40;;;;;;4981296;28;20460;-64
2023/09/26 04:13:21;;;;;;;11.37;8.17;;;11.30;29.50;;;;;;4983294;28;20467;-64
2023/09/26 04:15:48;;;;;;;9.27;7.33;;;11.30;29.40;;;;;;4984806;28;21255;-66
2023/09/26 04:18:16;;;;;;;10.10;8.23;;;11.30;29.50;;;;;;4981295;28;20472;-64
2023/09/26 04:20:45;;;;;;;7.90;6.93;;;11.30;29.40;;;;;;4983333;28;20556;-65
2023/09/26 04:23:12;;;;;;;9.40;7.47;;;11.30;29.50;;;;;;4987243;28;20942;-65
2023/09/26 04:25:38;;;;;;;10.33;7.57;;;11.20;29.50;;;;;;4984508;28;20816;-65
2023/09/26 04:28:05;;;;;;;8.83;7.40;;;11.20;29.60;;;;;;4984104;28;20460;-65
2023/09/26 04:30:37;;;;;;;9.27;7.30;;;11.20;29.50;;;;;;4982174;28;20496;-66
2023/09/26 04:33:05;;;;;;;9.63;6.80;;;11.10;29.70;;;;;;4984297;28;20473;-65
2023/09/26 04:35:33;;;;;;;8.20;6.97;;;11.10;29.70;;;;;;4980268;28;21100;-66
2023/09/26 04:37:59;;;;;;;8.20;6.70;;;11.10;30.10;;;;;;4986159;28;20475;-66
2023/09/26 04:40:26;;;;;;;11.63;7.27;;;11.10;30.10;;;;;;4981940;28;20488;-67
2023/09/26 04:42:53;;;;;;;9.20;7.80;;;11.10;30.10;;;;;;4983559;28;20472;-67
2023/09/26 04:45:19;;;;;;;8.53;6.90;;;11.10;30.10;;;;;;4983217;28;21060;-66
2023/09/26 04:47:46;;;;;;;11.10;8.57;;;11.10;30.00;;;;;;4984045;28;20465;-68
2023/09/26 04:50:13;;;;;;;9.20;7.43;;;11.10;30.50;;;;;;4983090;28;20461;-69
2023/09/26 04:52:41;;;;;;;9.53;7.77;;;11.10;30.70;;;;;;4985357;28;20477;-67
2023/09/26 04:55:08;;;;;;;10.67;8.00;;;11.10;30.50;;;;;;4983547;28;20516;-66
2023/09/26 04:57:35;;;;;;;9.07;7.67;;;11.10;30.50;;;;;;4985599;28;20476;-66
2023/09/26 05:00:05;;;;;;;9.40;7.60;;;11.10;30.60;;;;;;4984991;28;20460;-66
2023/09/26 05:02:32;;;;;;;9.97;7.20;;;11.10;30.60;;;;;;4986531;28;20475;-68
2023/09/26 05:04:58;;;;;;;9.37;7.07;;;11.10;30.50;;;;;;4987712;28;20583;-66
2023/09/26 05:07:25;;;;;;;8.73;6.27;;;11.10;30.40;;;;;;4992281;28;20491;-66
2023/09/26 05:09:53;;;;;;;7.83;6.00;;;11.10;30.10;;;;;;4989112;28;20479;-66
2023/09/26 05:12:20;;;;;;;8.93;6.10;;;11.10;29.90;;;;;;4991837;28;20476;-66
2023/09/26 05:14:46;;;;;;;8.40;7.07;;;11.10;29.70;;;;;;4987752;28;20485;-65
2023/09/26 05:17:13;;;;;;;8.73;6.87;;;11.10;30.10;;;;;;4986963;28;20957;-65
2023/09/26 05:19:40;;;;;;;7.83;6.33;;;11.10;30.00;;;;;;4981673;28;20488;-66
2023/09/26 05:22:07;;;;;;;10.27;7.33;;;11.10;30.00;;;;;;4986271;28;20468;-68
2023/09/26 05:24:33;;;;;;;10.23;6.60;;;11.10;30.10;;;;;;4984204;28;20492;-68
2023/09/26 05:27:04;;;;;;;8.30;5.63;;;11.10;30.00;;;;;;4990585;28;20491;-68
2023/09/26 05:29:33;;;;;;;8.97;6.03;;;11.10;29.90;;;;;;4987268;28;20487;-69
2023/09/26 05:31:59;;;;;;;9.13;5.90;;;11.10;29.70;;;;;;4982940;28;20486;-70
2023/09/26 05:34:26;;;;;;;8.10;5.57;;;11.20;29.50;;;;;;4990184;28;20499;-67
2023/09/26 05:36:53;;;;;;;8.77;5.90;;;11.20;29.40;;;;;;4986558;28;20900;-66
2023/09/26 05:39:20;;;;;;;7.63;5.97;;;11.20;29.40;;;;;;4989374;28;20467;-67
2023/09/26 05:41:46;;;;;;;9.00;6.87;;;11.20;29.50;;;;;;4985408;28;20460;-69
2023/09/26 05:44:17;;;;;;;6.67;5.47;;;11.20;29.60;;;;;;4984406;28;20489;-67
2023/09/26 05:46:44;;;;;;;9.43;6.60;;;11.20;29.50;;;;;;4989721;28;20495;-68
2023/09/26 05:49:10;;;;;;;7.70;5.97;;;11.30;29.20;;;;;;4990163;28;20469;-67
2023/09/26 05:51:37;;;;;;;9.83;8.33;;;11.30;29.20;;;;;;4987227;28;20480;-68
2023/09/26 05:54:04;;;;;;;8.87;6.10;;;11.40;29.30;;;;;;4985859;28;20519;-67
2023/09/26 05:56:32;;;;;;;7.77;6.13;;;11.50;29.40;;;;;;4987399;28;20461;-66
2023/09/26 05:58:58;;;;;;;7.47;5.73;;;11.60;29.40;;;;;;4988744;28;20475;-66
2023/09/26 06:01:26;;;;;;;9.17;6.67;;;11.70;29.50;;;;;;4987758;28;20877;-66
2023/09/26 06:03:53;;;;;;;8.80;6.33;;;11.90;29.60;;;;;;4984892;28;20874;-68
2023/09/26 06:06:20;;;;;;;8.03;6.30;;;12.10;29.60;;;;;;4985358;28;21012;-68
2023/09/26 06:08:47;;;;;;;8.97;6.83;;;12.20;29.40;;;;;;4985788;28;20470;-64
2023/09/26 06:11:14;;;;;;;12.10;7.37;;;12.30;29.10;;;;;;4988345;28;20461;-65
2023/09/26 06:13:42;;;;;;;8.97;6.57;;;12.30;28.80;;;;;;4983639;28;20527;-65
2023/09/26 06:16:09;;;;;;;7.73;6.00;;;12.40;28.60;;;;;;4986763;28;20467;-66
2023/09/26 06:18:37;;;;;;;9.27;6.87;;;12.40;28.40;;;;;;4986374;28;20969;-66
2023/09/26 06:21:05;;;;;;;9.23;6.30;;;12.50;28.40;;;;;;4987823;28;20457;-64
2023/09/26 06:23:32;;;;;;;9.90;7.03;;;12.50;28.30;;;;;;4986941;28;20651;-67
2023/09/26 06:26:00;;;;;;;8.13;7.03;;;12.60;28.20;;;;;;4989126;28;20480;-63
2023/09/26 06:28:27;;;;;;;9.93;7.40;;;12.60;28.10;;;;;;4984721;28;20476;-67
2023/09/26 06:30:53;;;;;;;10.50;7.17;;;12.60;28.00;;;;;;4986324;28;20484;-65
2023/09/26 06:33:20;;;;;;;10.93;7.47;;;12.70;27.90;;;;;;4989508;28;20465;-65
2023/09/26 06:35:48;;;;;;;10.00;7.60;;;12.70;28.10;;;;;;4984136;28;21028;-66
2023/09/26 06:38:15;;;;;;;14.30;8.70;;;12.80;28.20;;;;;;4986184;28;20810;-66
2023/09/26 06:40:42;;;;;;;10.00;8.10;;;12.90;28.20;;;;;;4988631;28;20478;-64
2023/09/26 06:43:09;;;;;;;9.47;7.70;;;13.00;28.20;;;;;;4992005;28;20468;-65
2023/09/26 06:45:38;;;;;;;9.53;6.90;;;13.20;27.80;;;;;;4987714;28;20911;-62
2023/09/26 06:48:06;;;;;;;13.33;7.90;;;13.40;27.50;;;;;;4988097;28;20461;-65
2023/09/26 06:50:33;;;;;;;14.83;7.90;;;13.50;27.20;;;;;;4987482;28;20478;-64
2023/09/26 06:53:02;;;;;;;10.03;7.20;;;13.60;26.80;;;;;;4985458;28;20468;-63
2023/09/26 06:55:29;;;;;;;13.93;8.47;;;13.70;26.90;;;;;;4986025;28;20489;-63
2023/09/26 06:57:56;;;;;;;14.47;9.20;;;13.70;26.80;;;;;;4984203;28;20486;-65
2023/09/26 07:00:24;;;;;;;43.67;12.90;;;13.70;26.70;;;;;;4983841;28;20469;-65
2023/09/26 07:02:51;;;;;;;21.70;12.63;;;13.70;26.80;;;;;;4985589;28;20472;-64
2023/09/26 07:05:18;;;;;;;34.57;15.03;;;13.80;26.80;;;;;;4986054;28;20499;-65
2023/09/26 07:07:45;;;;;;;32.80;15.90;;;13.90;26.80;;;;;;4987075;28;20834;-64
2023/09/26 07:10:13;;;;;;;60.37;18.33;;;13.90;27.30;;;;;;4989363;28;20464;-65
2023/09/26 07:12:41;;;;;;;52.23;22.23;;;14.00;27.70;;;;;;4988112;28;21151;-64
2023/09/26 07:15:11;;;;;;;50.17;20.97;;;14.00;28.20;;;;;;4989093;28;20481;-65
2023/09/26 07:17:38;;;;;;;26.23;21.23;;;14.10;28.50;;;;;;4990109;28;20457;-65
2023/09/26 07:20:07;;;;;;;55.43;22.83;;;14.10;28.60;;;;;;4981084;28;20464;-65
2023/09/26 07:22:34;;;;;;;55.03;21.73;;;14.10;28.90;;;;;;4986955;28;20609;-65
2023/09/26 07:25:03;;;;;;;65.47;22.23;;;14.20;28.90;;;;;;4988643;28;20488;-65
2023/09/26 07:27:31;;;;;;;47.93;22.00;;;14.30;29.10;;;;;;4985860;28;20572;-65
2023/09/26 07:29:58;;;;;;;32.50;22.17;;;14.40;28.80;;;;;;4984351;28;20949;-65
2023/09/26 07:32:25;;;;;;;44.47;22.50;;;14.50;28.70;;;;;;4985245;28;20470;-65
2023/09/26 07:34:52;;;;;;;56.97;20.37;;;14.60;28.20;;;;;;4986933;28;20574;-66
2023/09/26 07:37:18;;;;;;;48.77;19.20;;;14.80;28.00;;;;;;4982883;28;20601;-65
2023/09/26 07:39:49;;;;;;;29.03;17.93;;;14.90;27.60;;;;;;4985010;28;20465;-65
2023/09/26 07:42:15;;;;;;;35.03;17.27;;;15.00;27.40;;;;;;4985670;28;20469;-65
2023/09/26 07:44:43;;;;;;;32.70;18.30;;;15.10;26.90;;;;;;4988417;28;20982;-65
2023/09/26 07:47:10;;;;;;;28.90;19.40;;;15.20;26.80;;;;;;4984122;28;20492;-65
2023/09/26 07:49:37;;;;;;;31.57;20.77;;;15.40;26.80;;;;;;4986796;28;20849;-65
2023/09/26 07:52:04;;;;;;;29.97;19.50;;;15.60;26.50;;;;;;4987326;28;20460;-66
2023/09/26 07:54:32;;;;;;;27.13;19.90;;;15.70;25.90;;;;;;4986031;28;21242;-65
2023/09/26 07:56:59;;;;;;;23.50;19.10;;;15.90;25.60;;;;;;4985185;28;20468;-66
2023/09/26 07:59:26;;;;;;;24.70;18.30;;;16.10;24.90;;;;;;4989910;28;20461;-66
2023/09/26 08:01:54;;;;;;;24.80;19.10;;;16.20;24.10;;;;;;4988130;28;20480;-66
2023/09/26 08:04:20;;;;;;;23.90;18.90;;;16.30;23.80;;;;;;4985498;28;20503;-66
2023/09/26 08:06:48;;;;;;;22.93;19.57;;;16.40;23.70;;;;;;4987602;28;20484;-65
2023/09/26 08:09:15;;;;;;;28.20;20.80;;;16.60;23.20;;;;;;4986874;28;20511;-65
2023/09/26 08:11:42;;;;;;;26.57;19.80;;;16.70;22.80;;;;;;4988668;28;20464;-65
2023/09/26 08:14:08;;;;;;;19.20;16.20;;;16.80;22.60;;;;;;4988420;28;20491;-65
2023/09/26 08:16:35;;;;;;;27.53;21.07;;;16.90;22.40;;;;;;4991540;28;20460;-66
2023/09/26 08:19:03;;;;;;;22.77;19.23;;;17.10;21.70;;;;;;4986847;28;20464;-66
2023/09/26 08:21:30;;;;;;;22.50;18.43;;;17.30;21.20;;;;;;4986637;28;20464;-66
2023/09/26 08:23:57;;;;;;;21.20;18.03;;;17.50;20.50;;;;;;4986198;28;20503;-66
2023/09/26 08:26:24;;;;;;;23.03;19.30;;;17.60;20.00;;;;;;4987769;28;20457;-65
2023/09/26 08:28:51;;;;;;;22.30;18.10;;;17.70;20.00;;;;;;4988592;28;20479;-65
2023/09/26 08:31:18;;;;;;;27.07;19.97;;;17.80;19.40;;;;;;4985228;28;20476;-65
2023/09/26 08:33:45;;;;;;;23.20;18.80;;;17.90;19.20;;;;;;4986176;28;20487;-66
2023/09/26 08:36:16;;;;;;;24.00;20.00;;;18.10;18.90;;;;;;4986605;28;20461;-66
2023/09/26 08:38:43;;;;;;;25.57;21.40;;;18.30;18.70;;;;;;4984674;28;20464;-66
2023/09/26 08:41:11;;;;;;;23.30;20.60;;;18.70;18.50;;;;;;4986370;28;20480;-66
2023/09/26 08:43:38;;;;;;;22.57;18.83;;;19.30;17.60;;;;;;4987952;28;20524;-66
2023/09/26 08:46:06;;;;;;;19.73;17.63;;;20.80;15.00;;;;;;4987355;28;20474;-66
2023/09/26 08:48:33;;;;;;;20.83;17.63;;;22.80;11.90;;;;;;4984891;28;20487;-66
2023/09/26 08:51:00;;;;;;;19.83;17.60;;;25.00;4.90;;;;;;4990737;28;20468;-66
2023/09/26 08:53:28;;;;;;;17.87;15.97;;;26.20;1.20;;;;;;4987957;28;20464;-66
2023/09/26 08:55:55;;;;;;;19.17;17.20;;;26.90;1.00;;;;;;4982381;28;20456;-66
2023/09/26 08:58:22;;;;;;;18.67;16.97;;;28.40;1.00;;;;;;4986161;28;21135;-66
2023/09/26 09:00:49;;;;;;;17.70;15.93;;;30.70;1.00;;;;;;4987669;28;20476;-66
2023/09/26 09:03:16;;;;;;;17.27;15.53;;;32.20;1.00;;;;;;4987872;28;20472;-66
2023/09/26 09:05:44;;;;;;;18.40;16.53;;;33.50;1.00;;;;;;4990964;28;20567;-66
2023/09/26 09:08:18;;;;;;;15.97;14.50;;;34.80;1.00;;;;;;4988580;28;20526;-66
2023/09/26 09:10:50;;;;;;;16.20;14.70;;;36.10;1.00;;;;;;4990255;28;20468;-66
2023/09/26 09:13:27;;;;;;;17.83;15.90;;;37.60;1.00;;;;;;4987945;28;20468;-67
2023/09/26 09:16:07;;;;;;;17.13;15.57;;;39.10;1.00;;;;;;4988759;28;20474;-68
2023/09/26 09:18:34;;;;;;;17.33;15.73;;;39.80;1.00;;;;;;4989156;28;20984;-67
2023/09/26 09:21:01;;;;;;;17.70;16.10;;;40.80;1.00;;;;;;4988281;28;20465;-67
2023/09/26 09:23:27;;;;;;;17.17;15.50;;;41.60;1.00;;;;;;4987088;28;20485;-67
2023/09/26 09:26:11;;;;;;;17.10;15.50;;;42.30;1.00;;;;;;4987792;28;20880;-67
2023/09/26 09:28:37;;;;;;;17.90;16.30;;;42.80;1.00;;;;;;4983919;28;20508;-66
2023/09/26 09:31:04;;;;;;;17.67;16.07;;;43.50;1.00;;;;;;4987766;28;20487;-66
2023/09/26 09:33:32;;;;;;;15.90;14.50;;;44.00;1.00;;;;;;4988312;28;20491;-66
2023/09/26 09:35:59;;;;;;;17.13;15.63;;;44.40;1.00;;;;;;4989760;28;20464;-66
2023/09/26 09:38:26;;;;;;;18.27;16.37;;;44.70;1.00;;;;;;4987413;28;20843;-66
2023/09/26 09:40:53;;;;;;;19.23;17.43;;;44.90;1.00;;;;;;4987558;28;21199;-67
2023/09/26 09:43:21;;;;;;;18.90;17.20;;;45.00;1.00;;;;;;4987409;28;20476;-67
2023/09/26 09:45:49;;;;;;;18.43;16.83;;;45.20;1.00;;;;;;4989016;28;20469;-66
2023/09/26 09:48:16;;;;;;;17.03;15.53;;;45.00;1.00;;;;;;4988011;28;20524;-66
2023/09/26 09:50:47;;;;;;;16.07;14.67;;;45.20;1.00;;;;;;4989470;28;20472;-67
2023/09/26 09:53:17;;;;;;;16.33;14.50;;;45.10;1.00;;;;;;4984242;28;20460;-67
2023/09/26 09:55:47;;;;;;;18.17;16.63;;;44.90;1.00;;;;;;4987082;28;20468;-67
2023/09/26 09:58:18;;;;;;;16.60;15.10;;;44.50;1.00;;;;;;4989596;28;20785;-67
2023/09/26 10:00:46;;;;;;;16.43;14.97;;;44.30;1.00;;;;;;4989126;28;20473;-66
2023/09/26 10:03:14;;;;;;;16.77;15.27;;;44.30;1.00;;;;;;4987299;28;20836;-66
2023/09/26 10:05:43;;;;;;;17.87;16.27;;;44.10;1.00;;;;;;4989742;28;20976;-66
2023/09/26 10:08:10;;;;;;;16.37;14.90;;;44.10;1.00;;;;;;5016189;23;20492;-71
2023/09/26 10:10:37;;;;;;;15.93;14.53;;;43.80;1.00;;;;;;5003733;28;20470;-68
2023/09/26 10:13:05;;;;;;;16.67;14.97;;;43.70;1.00;;;;;;5007992;28;20475;-68
2023/09/26 10:15:32;;;;;;;16.43;14.77;;;43.20;1.00;;;;;;5000772;28;20488;-70
2023/09/26 10:18:03;;;;;;;15.93;14.43;;;42.90;1.00;;;;;;5007613;28;20464;-68
2023/09/26 10:20:30;;;;;;;17.53;15.97;;;42.40;1.00;;;;;;5007140;28;20468;-70
2023/09/26 10:23:10;;;;;;;16.70;15.20;;;41.80;1.00;;;;;;5003435;28;20463;-70
2023/09/26 10:25:38;;;;;;;17.53;16.03;;;41.30;1.00;;;;;;5006944;28;20810;-69
2023/09/26 10:28:07;;;;;;;16.93;15.40;;;40.80;1.00;;;;;;5007123;28;20931;-70
2023/09/26 10:30:43;;;;;;;15.93;14.33;;;40.40;1.00;;;;;;5003507;28;20464;-68
2023/09/26 10:33:12;;;;;;;16.83;15.13;;;39.90;1.00;;;;;;5003925;28;20467;-69
2023/09/26 10:35:43;;;;;;;15.37;13.87;;;39.40;1.00;;;;;;5009023;28;20492;-71
2023/09/26 10:38:18;;;;;;;15.67;14.27;;;38.90;1.00;;;;;;5007795;28;20466;-67
2023/09/26 10:40:45;;;;;;;15.83;14.17;;;38.40;1.00;;;;;;5006723;28;20889;-69
2023/09/26 10:43:12;;;;;;;14.20;13.00;;;37.90;1.00;;;;;;5006278;28;20479;-70
2023/09/26 10:45:43;;;;;;;16.23;14.73;;;37.30;1.00;;;;;;5007201;28;20464;-69
2023/09/26 10:48:09;;;;;;;15.93;14.23;;;36.80;1.00;;;;;;5007876;28;20480;-69
2023/09/26 10:50:38;;;;;;;14.80;13.40;;;36.20;1.00;;;;;;5005850;28;20463;-67
2023/09/26 10:53:05;;;;;;;15.57;14.07;;;35.50;1.00;;;;;;5005764;28;20460;-66
2023/09/26 10:55:33;;;;;;;12.57;11.37;;;34.80;1.00;;;;;;5007262;28;20518;-66
2023/09/26 10:58:00;;;;;;;14.70;13.30;;;34.10;1.00;;;;;;5002749;28;20889;-67
2023/09/26 11:00:27;;;;;;;15.43;13.90;;;33.70;1.00;;;;;;5005438;28;20960;-69
2023/09/26 11:02:54;;;;;;;13.80;12.43;;;33.20;1.00;;;;;;5004330;28;20475;-66
2023/09/26 11:05:21;;;;;;;15.53;13.77;;;32.70;1.00;;;;;;5006913;28;20845;-67
2023/09/26 11:07:51;;;;;;;13.87;12.47;;;32.40;1.00;;;;;;5005509;28;20484;-67
2023/09/26 11:10:18;;;;;;;13.97;12.57;;;32.20;1.00;;;;;;5008046;28;20464;-66
2023/09/26 11:12:45;;;;;;;15.77;13.83;;;32.00;1.00;;;;;;5008117;28;20475;-66
2023/09/26 11:15:12;;;;;;;11.90;10.80;;;31.90;1.00;;;;;;5000460;28;20503;-66
2023/09/26 11:17:39;;;;;;;13.30;11.93;;;31.80;1.00;;;;;;5006089;28;20455;-66
2023/09/26 11:20:11;;;;;;;13.17;11.83;;;31.90;1.00;;;;;;5001815;28;20468;-65
2023/09/26 11:22:45;;;;;;;12.50;11.07;;;31.70;1.00;;;;;;5006382;28;20976;-65
2023/09/26 11:25:13;;;;;;;13.73;12.33;;;31.40;1.00;;;;;;5002501;28;20495;-66
2023/09/26 11:27:41;;;;;;;12.60;11.30;;;31.40;1.00;;;;;;5006546;28;20496;-67
2023/09/26 11:30:10;;;;;;;12.30;11.00;;;31.20;1.00;;;;;;5007808;28;20475;-66
2023/09/26 11:32:38;;;;;;;13.20;11.83;;;31.20;1.00;;;;;;5004161;28;20512;-66
2023/09/26 11:35:06;;;;;;;14.77;13.33;;;31.10;1.00;;;;;;4999732;28;20480;-66
2023/09/26 11:37:33;;;;;;;13.13;11.77;;;31.00;1.00;;;;;;5006874;28;20455;-66
2023/09/26 11:40:00;;;;;;;12.60;11.33;;;30.80;1.00;;;;;;5006865;28;20471;-66
2023/09/26 11:42:28;;;;;;;11.27;9.90;;;30.70;1.00;;;;;;5003338;28;20490;-66
2023/09/26 11:44:56;;;;;;;12.10;10.90;;;30.70;1.00;;;;;;5002612;28;20498;-66
2023/09/26 11:47:24;;;;;;;12.90;10.10;;;30.70;1.00;;;;;;5007155;28;20463;-66
2023/09/26 11:49:52;;;;;;;12.40;10.93;;;30.70;1.00;;;;;;5007554;28;21680;-66
2023/09/26 11:52:19;;;;;;;12.50;11.20;;;30.60;1.00;;;;;;5006635;28;20482;-66
2023/09/26 11:54:46;;;;;;;12.80;11.60;;;30.50;1.00;;;;;;5003592;28;20479;-66
2023/09/26 11:57:13;;;;;;;13.10;10.60;;;30.30;1.00;;;;;;5004586;28;20463;-66
2023/09/26 11:59:41;;;;;;;11.70;10.50;;;29.90;1.00;;;;;;5002461;28;20524;-66
2023/09/26 12:02:09;;;;;;;16.60;10.97;;;29.60;1.00;;;;;;5006438;28;20483;-70
2023/09/26 12:04:36;;;;;;;11.90;9.80;;;29.20;1.00;;;;;;5001518;28;20493;-66
2023/09/26 12:07:03;;;;;;;11.73;9.63;;;28.70;1.00;;;;;;5000156;28;20522;-66
2023/09/26 12:09:33;;;;;;;10.87;9.60;;;28.40;1.00;;;;;;5003395;28;20553;-72
2023/09/26 12:12:00;;;;;;;10.33;8.90;;;28.00;1.00;;;;;;4999399;28;20507;-71
2023/09/26 12:14:26;;;;;;;10.27;8.50;;;27.90;1.00;;;;;;4999034;28;20514;-71
2023/09/26 12:16:56;;;;;;;10.37;9.27;;;27.60;1.00;;;;;;5004680;28;20456;-71
2023/09/26 12:19:23;;;;;;;10.57;9.47;;;27.40;1.00;;;;;;5006208;28;20456;-72
2023/09/26 12:21:50;;;;;;;12.40;11.10;;;27.10;1.00;;;;;;5004057;28;20463;-72
2023/09/26 12:24:17;;;;;;;11.97;10.40;;;26.80;1.00;;;;;;5006279;28;20480;-71
2023/09/26 12:26:46;;;;;;;11.57;9.67;;;26.50;1.00;;;;;;5006398;28;20463;-69
2023/09/26 12:29:13;;;;;;;12.00;10.73;;;26.20;1.00;;;;;;5006372;28;20490;-69
2023/09/26 12:31:39;;;;;;;11.40;10.10;;;26.00;1.00;;;;;;5004698;28;20484;-69
2023/09/26 12:34:07;;;;;;;11.10;9.80;;;25.80;1.00;;;;;;5009537;28;20494;-70
2023/09/26 12:36:34;;;;;;;13.50;9.50;;;25.60;1.00;;;;;;5010672;28;20456;-70
2023/09/26 12:39:01;;;;;;;10.97;9.13;;;25.50;1.00;;;;;;5003167;28;20471;-69